createdAt,value
2023-04-12T00:01:31.997Z,100645.91
2023-04-12T00:04:04.560Z,100644.47
2023-04-12T00:06:35.256Z,100647.50
2023-04-12T00:09:04.363Z,100645.84
2023-04-12T00:11:35.625Z,100640.63
2023-04-12T00:14:05.328Z,100636.50
2023-04-12T00:16:37.120Z,100627.47
2023-04-12T00:19:06.932Z,100631.53
2023-04-12T00:21:37.109Z,100621.13
2023-04-12T00:24:07.410Z,100637.75
2023-04-12T00:26:37.760Z,100629.00
2023-04-12T00:29:07.464Z,100635.56
2023-04-12T00:31:37.298Z,100630.34
2023-04-12T00:34:07.182Z,100629.22
2023-04-12T00:36:37.005Z,100629.19
2023-04-12T00:39:10.084Z,100614.97
2023-04-12T00:41:40.052Z,100622.84
2023-04-12T00:44:08.376Z,100632.38
2023-04-12T00:46:38.491Z,100631.81
2023-04-12T00:49:08.679Z,100621.41
2023-04-12T00:51:40.004Z,100633.91
2023-04-12T00:54:09.910Z,100621.84
2023-04-12T00:56:41.492Z,100625.69
2023-04-12T00:59:11.128Z,100618.59
2023-04-12T01:01:41.561Z,100612.56
2023-04-12T01:04:14.173Z,100618.28
2023-04-12T01:07:30.069Z,100622.34
2023-04-12T01:10:37.007Z,100616.03
2023-04-12T01:13:42.304Z,100601.00
2023-04-12T01:16:31.256Z,100596.34
2023-04-12T01:19:36.201Z,100581.56
2023-04-12T01:23:06.231Z,100583.97
2023-04-12T01:26:17.874Z,100578.78
2023-04-12T01:28:54.412Z,100580.94
2023-04-12T01:31:26.905Z,100589.38
2023-04-12T01:33:59.501Z,100589.63
2023-04-12T01:36:31.802Z,100585.25
2023-04-12T01:39:05.094Z,100583.88
2023-04-12T01:41:42.402Z,100579.72
2023-04-12T01:44:18.924Z,100575.63
2023-04-12T01:46:49.815Z,100583.22
2023-04-12T01:49:28.409Z,100586.78
2023-04-12T01:52:31.220Z,100585.97
2023-04-12T01:55:07.390Z,100577.47
2023-04-12T01:57:40.588Z,100576.63
2023-04-12T02:00:12.285Z,100582.03
2023-04-12T02:02:41.334Z,100577.94
2023-04-12T02:05:11.579Z,100580.34
2023-04-12T02:07:42.439Z,100578.09
2023-04-12T02:10:16.079Z,100567.19
2023-04-12T02:12:46.203Z,100559.53
2023-04-12T02:15:16.343Z,100559.22
2023-04-12T02:17:46.509Z,100566.59
2023-04-12T02:20:18.168Z,100549.66
2023-04-12T02:22:48.538Z,100546.94
2023-04-12T02:25:18.817Z,100547.75
2023-04-12T02:27:49.112Z,100546.69
2023-04-12T02:30:19.182Z,100544.91
2023-04-12T02:32:50.292Z,100545.72
2023-04-12T02:35:20.638Z,100548.41
2023-04-12T02:37:51.375Z,100544.78
2023-04-12T02:40:20.558Z,100545.53
2023-04-12T02:42:50.385Z,100533.50
2023-04-12T02:45:20.106Z,100521.72
2023-04-12T02:47:49.861Z,100515.13
2023-04-12T02:50:19.763Z,100514.06
2023-04-12T02:52:49.506Z,100515.97
2023-04-12T02:55:19.438Z,100518.69
2023-04-12T02:57:49.347Z,100519.75
2023-04-12T03:00:20.399Z,100519.75
2023-04-12T03:02:51.809Z,100515.63
2023-04-12T03:05:21.808Z,100513.41
2023-04-12T03:07:49.942Z,100510.09
2023-04-12T03:10:18.334Z,100496.19
2023-04-12T03:12:46.853Z,100500.25
2023-04-12T03:15:15.171Z,100494.72
2023-04-12T03:17:45.139Z,100499.59
2023-04-12T03:20:15.050Z,100487.31
2023-04-12T03:22:43.457Z,100485.66
2023-04-12T03:25:12.835Z,100482.13
2023-04-12T03:27:40.488Z,100483.50
2023-04-12T03:30:14.631Z,100477.00
2023-04-12T03:32:45.344Z,100470.44
2023-04-12T03:35:15.503Z,100473.44
2023-04-12T03:37:45.544Z,100450.75
2023-04-12T03:40:15.194Z,100446.91
2023-04-12T03:42:45.030Z,100446.56
2023-04-12T03:45:14.842Z,100455.84
2023-04-12T03:47:44.505Z,100445.75
2023-04-12T03:50:14.437Z,100439.50
2023-04-12T03:52:44.230Z,100442.22
2023-04-12T03:55:18.222Z,100444.94
2023-04-12T03:57:46.939Z,100439.50
2023-04-12T04:00:17.045Z,100433.25
2023-04-12T04:02:44.801Z,100433.25
2023-04-12T04:05:15.672Z,100420.94
2023-04-12T04:07:45.056Z,100428.28
2023-04-12T04:10:14.767Z,100420.34
2023-04-12T04:12:44.452Z,100426.91
2023-04-12T04:15:15.722Z,100426.06
2023-04-12T04:17:47.639Z,100418.97
2023-04-12T04:20:19.013Z,100430.69
2023-04-12T04:22:49.106Z,100431.78
2023-04-12T04:25:20.435Z,100441.56
2023-04-12T04:27:51.178Z,100432.59
2023-04-12T04:30:23.311Z,100432.09
2023-04-12T04:32:53.626Z,100429.38
2023-04-12T04:35:24.404Z,100426.66
2023-04-12T04:37:55.082Z,100427.72
2023-04-12T04:40:26.491Z,100429.63
2023-04-12T04:42:56.283Z,100424.97
2023-04-12T04:45:26.854Z,100414.41
2023-04-12T04:47:57.620Z,100413.91
2023-04-12T04:50:28.631Z,100420.47
2023-04-12T04:52:58.375Z,100422.16
2023-04-12T04:55:29.800Z,100420.81
2023-04-12T04:57:59.856Z,100418.66
2023-04-12T05:00:29.573Z,100413.78
2023-04-12T05:02:59.573Z,100403.19
2023-04-12T05:05:30.522Z,100397.47
2023-04-12T05:08:00.838Z,100402.72
2023-04-12T05:10:30.437Z,100403.72
2023-04-12T05:13:00.142Z,100406.03
2023-04-12T05:15:32.146Z,100399.88
2023-04-12T05:18:02.745Z,100406.00
2023-04-12T05:20:32.913Z,100393.81
2023-04-12T05:23:01.464Z,100403.25
2023-04-12T05:25:29.870Z,100392.72
2023-04-12T05:28:01.338Z,100397.19
2023-04-12T05:30:30.582Z,100384.47
2023-04-12T05:33:01.353Z,100384.53
2023-04-12T05:35:29.524Z,100386.53
2023-04-12T05:37:57.845Z,100390.41
2023-04-12T05:40:26.287Z,100379.22
2023-04-12T05:42:59.785Z,100369.16
2023-04-12T05:45:28.819Z,100377.38
2023-04-12T05:47:58.878Z,100363.97
2023-04-12T05:50:26.424Z,100365.03
2023-04-12T05:52:56.649Z,100353.53
2023-04-12T05:55:26.549Z,100352.41
2023-04-12T05:57:56.309Z,100350.97
2023-04-12T06:00:26.548Z,100344.88
2023-04-12T06:03:01.200Z,100338.50
2023-04-12T06:05:29.080Z,100343.59
2023-04-12T06:08:00.201Z,100334.91
2023-04-12T06:10:30.561Z,100334.06
2023-04-12T06:13:00.145Z,100331.13
2023-04-12T06:15:32.160Z,100320.13
2023-04-12T06:18:02.463Z,100308.69
2023-04-12T06:20:32.637Z,100307.28
2023-04-12T06:23:02.199Z,100312.19
2023-04-12T06:25:33.148Z,100305.78
2023-04-12T06:28:02.346Z,100299.19
2023-04-12T06:30:30.900Z,100296.13
2023-04-12T06:32:59.242Z,100301.38
2023-04-12T06:35:27.510Z,100295.81
2023-04-12T06:37:56.028Z,100292.47
2023-04-12T06:40:24.537Z,100292.47
2023-04-12T06:42:53.024Z,100294.00
2023-04-12T06:45:21.264Z,100291.47
2023-04-12T06:47:49.756Z,100288.47
2023-04-12T06:50:18.703Z,100280.56
2023-04-12T06:52:48.531Z,100283.44
2023-04-12T06:55:18.317Z,100282.16
2023-04-12T06:57:46.411Z,100290.72
2023-04-12T07:00:15.468Z,100278.13
2023-04-12T07:02:43.313Z,100273.69
2023-04-12T07:05:11.478Z,100271.81
2023-04-12T07:07:40.119Z,100263.75
2023-04-12T07:10:09.146Z,100271.56
2023-04-12T07:12:37.077Z,100272.84
2023-04-12T07:15:06.174Z,100261.44
2023-04-12T07:17:34.050Z,100257.59
2023-04-12T07:20:02.459Z,100253.59
2023-04-12T07:22:30.766Z,100249.75
2023-04-12T07:24:59.256Z,100251.31
2023-04-12T07:27:27.475Z,100239.50
2023-04-12T07:29:56.153Z,100244.19
2023-04-12T07:32:24.314Z,100232.75
2023-04-12T07:34:53.238Z,100240.88
2023-04-12T07:37:21.060Z,100235.72
2023-04-12T07:39:49.459Z,100226.50
2023-04-12T07:42:18.078Z,100223.78
2023-04-12T07:44:46.292Z,100224.06
2023-04-12T07:47:14.727Z,100215.00
2023-04-12T07:49:43.123Z,100217.78
2023-04-12T07:52:11.618Z,100218.50
2023-04-12T07:54:40.234Z,100206.66
2023-04-12T07:59:36.895Z,100201.84
2023-04-12T08:02:06.380Z,100200.63
2023-04-12T08:04:33.861Z,100192.25
2023-04-12T08:07:02.098Z,100190.66
2023-04-12T08:09:31.001Z,100179.38
2023-04-12T08:11:58.846Z,100177.84
2023-04-12T08:14:27.334Z,100181.19
2023-04-12T08:16:55.724Z,100178.75
2023-04-12T08:19:24.671Z,100178.31
2023-04-12T08:21:53.341Z,100167.78
2023-04-12T08:24:21.388Z,100172.88
2023-04-12T08:26:51.352Z,100169.06
2023-04-12T08:29:21.447Z,100157.56
2023-04-12T08:31:52.026Z,100159.59
2023-04-12T08:34:22.641Z,100155.66
2023-04-12T08:36:52.716Z,100144.91
2023-04-12T08:39:23.389Z,100143.53
2023-04-12T08:41:57.514Z,100146.59
2023-04-12T08:44:39.731Z,100137.59
2023-04-12T08:47:11.870Z,100139.34
2023-04-12T08:49:41.089Z,100132.00
2023-04-12T08:52:11.464Z,100130.28
2023-04-12T08:54:41.819Z,100132.94
2023-04-12T08:57:15.648Z,100130.88
2023-04-12T08:59:49.303Z,100126.59
2023-04-12T09:02:17.453Z,100123.38
2023-04-12T09:04:52.632Z,100119.72
2023-04-12T09:07:28.257Z,100116.50
2023-04-12T09:10:04.401Z,100115.63
2023-04-12T09:12:34.799Z,100106.63
2023-04-12T09:15:15.788Z,100094.22
2023-04-12T09:17:44.698Z,100089.84
2023-04-12T09:20:18.083Z,100100.41
2023-04-12T09:22:49.027Z,100088.09
2023-04-12T09:25:18.526Z,100078.06
2023-04-12T09:27:54.685Z,100085.81
2023-04-12T09:30:22.617Z,100074.22
2023-04-12T09:32:51.267Z,100063.47
2023-04-12T09:35:33.173Z,100064.69
2023-04-12T09:38:11.284Z,100059.19
2023-04-12T09:40:41.939Z,100052.03
2023-04-12T09:43:12.176Z,100051.41
2023-04-12T09:45:42.435Z,100034.84
2023-04-12T09:48:26.479Z,100035.72
2023-04-12T09:51:01.544Z,100032.03
2023-04-12T09:53:36.439Z,100023.22
2023-04-12T09:56:09.261Z,100024.78
2023-04-12T09:58:41.331Z,100010.88
2023-04-12T10:01:11.349Z,100008.31
2023-04-12T10:03:41.914Z,100000.59
2023-04-12T10:06:13.791Z,99992.59
2023-04-12T10:08:44.554Z,99991.00
2023-04-12T10:11:14.636Z,99987.00
2023-04-12T10:13:45.515Z,99980.25
2023-04-12T10:16:17.138Z,99979.75
2023-04-12T10:18:48.461Z,99967.91
2023-04-12T10:21:18.974Z,99962.78
2023-04-12T10:23:49.329Z,99953.25
2023-04-12T10:26:19.397Z,99947.50
2023-04-12T10:29:47.994Z,99935.38
2023-04-12T10:32:25.811Z,99928.59
2023-04-12T10:34:59.136Z,99929.78
2023-04-12T10:38:04.485Z,99921.94
2023-04-12T10:40:35.740Z,99919.22
2023-04-12T10:43:23.440Z,99920.59
2023-04-12T10:45:53.557Z,99918.34
2023-04-12T10:48:52.078Z,99907.53
2023-04-12T10:51:26.032Z,99899.66
2023-04-12T10:54:08.377Z,99891.50
2023-04-12T10:56:47.984Z,99885.69
2023-04-12T10:59:21.078Z,99880.94
2023-04-12T11:02:25.625Z,99885.09
2023-04-12T11:05:14.758Z,99875.34
2023-04-12T11:07:46.314Z,99875.69
2023-04-12T11:10:21.907Z,99866.69
2023-04-12T11:12:57.483Z,99860.84
2023-04-12T11:15:29.012Z,99854.59
2023-04-12T11:18:01.175Z,99843.13
2023-04-12T11:20:33.732Z,99852.59
2023-04-12T11:23:06.019Z,99838.22
2023-04-12T11:25:37.976Z,99838.31
2023-04-12T11:28:21.223Z,99846.00
2023-04-12T11:30:57.552Z,99840.13
2023-04-12T11:33:40.401Z,99824.41
2023-04-12T11:36:13.437Z,99822.50
2023-04-12T11:38:46.447Z,99833.50
2023-04-12T11:41:18.641Z,99819.50
2023-04-12T11:43:49.649Z,99815.63
2023-04-12T11:46:19.902Z,99806.19
2023-04-12T11:48:48.592Z,99801.81
2023-04-12T11:51:31.657Z,99802.22
2023-04-12T11:54:02.717Z,99803.38
2023-04-12T11:56:33.025Z,99788.75
2023-04-12T11:59:04.144Z,99788.22
2023-04-12T12:01:38.724Z,99776.53
2023-04-12T12:04:09.475Z,99757.63
2023-04-12T12:06:40.722Z,99760.63
2023-04-12T12:09:13.472Z,99754.50
2023-04-12T12:11:54.132Z,99758.13
2023-04-12T12:14:25.329Z,99735.09
2023-04-12T12:16:59.990Z,99736.75
2023-04-12T12:19:33.590Z,99724.91
2023-04-12T12:22:22.366Z,99726.22
2023-04-12T12:24:58.733Z,99728.78
2023-04-12T12:27:38.708Z,99714.22
2023-04-12T12:30:11.542Z,99704.53
2023-04-12T12:32:40.650Z,99707.22
2023-04-12T12:35:14.133Z,99702.47
2023-04-12T12:37:58.911Z,99684.53
2023-04-12T12:40:32.848Z,99683.91
2023-04-12T12:43:04.012Z,99685.03
2023-04-12T12:45:34.722Z,99684.00
2023-04-12T12:48:05.537Z,99683.03
2023-04-12T12:50:36.594Z,99687.59
2023-04-12T12:53:06.540Z,99677.81
2023-04-12T12:55:36.328Z,99672.63
2023-04-12T12:58:07.988Z,99673.31
2023-04-12T13:00:38.656Z,99669.06
2023-04-12T13:03:08.734Z,99661.69
2023-04-12T13:05:38.814Z,99664.66
2023-04-12T13:08:08.584Z,99656.28
2023-04-12T13:10:38.411Z,99651.09
2023-04-12T13:13:08.975Z,99648.47
2023-04-12T13:15:38.416Z,99649.16
2023-04-12T13:18:08.249Z,99643.13
2023-04-12T13:20:38.214Z,99645.53
2023-04-12T13:23:08.143Z,99640.78
2023-04-12T13:25:39.104Z,99637.47
2023-04-12T13:28:09.861Z,99626.91
2023-04-12T13:30:39.052Z,99616.09
2023-04-12T13:33:10.591Z,99614.09
2023-04-12T13:35:39.572Z,99610.94
2023-04-12T13:38:09.295Z,99598.53
2023-04-12T13:40:39.159Z,99608.69
2023-04-12T13:43:08.882Z,99617.63
2023-04-12T13:45:36.268Z,99599.22
2023-04-12T13:48:04.693Z,99594.28
2023-04-12T13:50:32.964Z,99595.41
2023-04-12T13:53:01.657Z,99586.19
2023-04-12T13:55:29.880Z,99585.34
2023-04-12T13:57:58.243Z,99593.63
2023-04-12T14:00:27.602Z,99577.69
2023-04-12T14:02:55.284Z,99583.41
2023-04-12T14:05:23.593Z,99576.97
2023-04-12T14:07:52.745Z,99570.28
2023-04-12T14:10:20.431Z,99573.84
2023-04-12T14:12:49.042Z,99578.41
2023-04-12T14:15:17.849Z,99575.13
2023-04-12T14:17:51.882Z,99571.50
2023-04-12T14:20:24.072Z,99572.09
2023-04-12T14:22:54.127Z,99569.34
2023-04-12T14:25:24.032Z,99568.41
2023-04-12T14:27:58.410Z,99568.50
2023-04-12T14:30:28.949Z,99570.22
2023-04-12T14:32:59.254Z,99576.84
2023-04-12T14:35:29.599Z,99573.84
2023-04-12T14:38:03.095Z,99578.69
2023-04-12T14:40:33.280Z,99574.84
2023-04-12T14:43:03.721Z,99579.28
2023-04-12T14:45:33.935Z,99581.22
2023-04-12T14:48:04.275Z,99577.03
2023-04-12T14:50:37.281Z,99573.13
2023-04-12T14:53:09.786Z,99584.34
2023-04-12T14:55:46.839Z,99585.16
2023-04-12T14:58:17.196Z,99599.28
2023-04-12T15:00:49.298Z,99602.03
2023-04-12T15:03:21.253Z,99606.69
2023-04-12T15:05:51.506Z,99608.34
2023-04-12T15:08:23.463Z,99600.00
2023-04-12T15:10:53.562Z,99603.97
2023-04-12T15:13:29.883Z,99606.66
2023-04-12T15:16:03.062Z,99601.78
2023-04-12T15:18:33.233Z,99601.44
2023-04-12T15:21:06.242Z,99599.59
2023-04-12T15:23:37.936Z,99604.53
2023-04-12T15:26:11.674Z,99599.72
2023-04-12T15:28:42.640Z,99605.44
2023-04-12T15:31:13.786Z,99603.09
2023-04-12T15:33:44.338Z,99599.53
2023-04-12T15:36:13.146Z,99600.66
2023-04-12T15:38:42.764Z,99590.09
2023-04-12T15:41:12.305Z,99593.66
2023-04-12T15:43:42.215Z,99597.31
2023-04-12T15:46:14.625Z,99592.50
2023-04-12T15:48:44.788Z,99593.94
2023-04-12T15:51:15.038Z,99584.28
2023-04-12T15:53:45.219Z,99587.50
2023-04-12T15:56:20.014Z,99587.75
2023-04-12T15:58:58.993Z,99586.84
2023-04-12T16:01:29.659Z,99575.84
2023-04-12T16:04:00.238Z,99571.72
2023-04-12T16:06:34.746Z,99560.00
2023-04-12T16:09:02.860Z,99556.22
2023-04-12T16:11:34.093Z,99557.41
2023-04-12T16:14:04.103Z,99556.06
2023-04-12T16:16:34.097Z,99558.50
2023-04-12T16:19:04.686Z,99550.16
2023-04-12T16:21:34.471Z,99543.72
2023-04-12T16:24:05.087Z,99556.59
2023-04-12T16:26:35.581Z,99553.53
2023-04-12T16:29:05.538Z,99566.97
2023-04-12T16:31:35.936Z,99557.09
2023-04-12T16:34:04.147Z,99555.75
2023-04-12T16:36:32.563Z,99555.13
2023-04-12T16:39:03.238Z,99548.66
2023-04-12T16:41:32.577Z,99548.41
2023-04-12T16:44:03.522Z,99550.06
2023-04-12T16:46:35.511Z,99543.91
2023-04-12T16:49:06.146Z,99541.59
2023-04-12T16:51:37.230Z,99536.69
2023-04-12T16:54:07.061Z,99542.53
2023-04-12T16:56:34.323Z,99535.38
2023-04-12T16:59:05.172Z,99537.59
2023-04-12T17:01:35.130Z,99539.09
2023-04-12T17:04:04.438Z,99531.16
2023-04-12T17:06:34.657Z,99524.50
2023-04-12T17:09:05.140Z,99520.13
2023-04-12T17:11:36.295Z,99521.22
2023-04-12T17:14:05.748Z,99517.91
2023-04-12T17:16:38.260Z,99503.78
2023-04-12T17:19:10.591Z,99511.91
2023-04-12T17:21:42.697Z,99505.00
2023-04-12T17:24:12.497Z,99505.91
2023-04-12T17:26:42.743Z,99506.25
2023-04-12T17:29:13.674Z,99491.94
2023-04-12T17:31:45.927Z,99496.75
2023-04-12T17:34:15.151Z,99496.09
2023-04-12T17:36:45.330Z,99485.47
2023-04-12T17:39:15.449Z,99484.09
2023-04-12T17:41:47.073Z,99473.34
2023-04-12T17:44:18.018Z,99476.97
2023-04-12T17:46:46.732Z,99482.50
2023-04-12T17:49:16.884Z,99476.19
2023-04-12T17:51:50.000Z,99478.69
2023-04-12T17:54:17.321Z,99477.31
2023-04-12T17:56:54.175Z,99486.41
2023-04-12T17:59:26.073Z,99484.75
2023-04-12T18:01:57.091Z,99490.22
2023-04-12T18:04:29.402Z,99483.50
2023-04-12T18:06:59.664Z,99489.16
2023-04-12T18:09:30.060Z,99488.63
2023-04-12T18:11:57.762Z,99491.63
2023-04-12T18:14:27.555Z,99489.19
2023-04-12T18:16:55.962Z,99490.69
2023-04-12T18:19:25.889Z,99482.25
2023-04-12T18:21:56.077Z,99480.66
2023-04-12T18:24:27.074Z,99480.38
2023-04-12T18:27:02.148Z,99479.94
2023-04-12T18:29:33.093Z,99474.59
2023-04-12T18:32:04.398Z,99491.44
2023-04-12T18:34:34.518Z,99491.22
2023-04-12T18:37:06.290Z,99479.00
2023-04-12T18:39:36.774Z,99484.06
2023-04-12T18:42:07.549Z,99487.22
2023-04-12T18:44:38.103Z,99483.09
2023-04-12T18:47:08.782Z,99492.06
2023-04-12T18:49:39.179Z,99476.03
2023-04-12T18:52:09.526Z,99477.75
2023-04-12T18:54:39.653Z,99469.47
2023-04-12T18:57:08.539Z,99479.63
2023-04-12T18:59:37.352Z,99479.75
2023-04-12T19:02:05.847Z,99482.97
2023-04-12T19:04:34.244Z,99480.88
2023-04-12T19:07:02.538Z,99483.09
2023-04-12T19:09:35.578Z,99480.56
2023-04-12T19:12:08.228Z,99484.38
2023-04-12T19:14:38.632Z,99474.47
2023-04-12T19:17:09.636Z,99474.00
2023-04-12T19:19:39.861Z,99463.84
2023-04-12T19:22:10.078Z,99460.38
2023-04-12T19:24:40.188Z,99464.25
2023-04-12T19:27:09.394Z,99456.19
2023-04-12T19:29:37.005Z,99460.69
2023-04-12T19:32:07.294Z,99457.94
2023-04-12T19:34:37.100Z,99460.16
2023-04-12T19:37:06.021Z,99448.75
2023-04-12T19:39:37.521Z,99444.94
2023-04-12T19:42:15.599Z,99441.47
2023-04-12T19:44:46.061Z,99438.94
2023-04-12T19:47:16.657Z,99437.09
2023-04-12T19:49:49.710Z,99432.34
2023-04-12T19:52:21.997Z,99431.78
2023-04-12T19:54:54.189Z,99429.00
2023-04-12T19:57:25.302Z,99425.56
2023-04-12T19:59:58.591Z,99420.81
2023-04-12T20:02:29.054Z,99422.66
2023-04-12T20:04:59.298Z,99419.69
2023-04-12T20:07:29.816Z,99416.00
2023-04-12T20:10:03.713Z,99418.41
2023-04-12T20:12:38.153Z,99420.47
2023-04-12T20:15:11.970Z,99408.47
2023-04-12T20:17:44.169Z,99414.38
2023-04-12T20:20:14.411Z,99416.41
2023-04-12T20:22:52.263Z,99409.63
2023-04-12T20:25:22.457Z,99413.22
2023-04-12T20:27:55.534Z,99408.84
2023-04-12T20:30:26.315Z,99402.03
2023-04-12T20:32:56.878Z,99393.16
2023-04-12T20:35:28.119Z,99385.09
2023-04-12T20:37:58.256Z,99382.66
2023-04-12T20:40:30.019Z,99389.13
2023-04-12T20:43:00.507Z,99390.88
2023-04-12T20:45:30.915Z,99386.13
2023-04-12T20:48:01.322Z,99386.78
2023-04-12T20:50:31.488Z,99386.56
2023-04-12T20:53:01.596Z,99385.06
2023-04-12T20:55:35.123Z,99385.75
2023-04-12T20:59:30.460Z,99387.00
2023-04-12T21:02:00.785Z,99379.41
2023-04-12T21:04:36.457Z,99378.00
2023-04-12T21:07:06.153Z,99368.91
2023-04-12T21:09:34.162Z,99379.28
2023-04-12T21:12:08.967Z,99380.09
2023-04-12T21:14:37.939Z,99384.59
2023-04-12T21:17:08.174Z,99380.34
2023-04-12T21:19:41.879Z,99381.84
2023-04-12T21:22:12.381Z,99376.41
2023-04-12T21:24:42.114Z,99375.47
2023-04-12T21:27:10.572Z,99380.53
2023-04-12T21:29:41.634Z,99380.41
2023-04-12T21:32:10.370Z,99376.28
2023-04-12T21:34:39.389Z,99374.66
2023-04-12T21:37:07.170Z,99375.94
2023-04-12T21:39:35.665Z,99389.75
2023-04-12T21:42:04.713Z,99387.13
2023-04-12T21:44:32.353Z,99381.38
2023-04-12T21:47:00.821Z,99378.13
2023-04-12T21:49:30.394Z,99377.22
2023-04-12T21:51:59.319Z,99375.47
2023-04-12T21:54:30.626Z,99376.88
2023-04-12T21:57:01.603Z,99372.59
2023-04-12T21:59:30.477Z,99370.84
2023-04-12T22:02:00.336Z,99369.94
2023-04-12T22:04:30.118Z,99370.78
2023-04-12T22:07:02.295Z,99367.28
2023-04-12T22:09:33.759Z,99365.78
2023-04-12T22:12:08.201Z,99364.59
2023-04-12T22:14:46.674Z,99374.53
2023-04-12T22:17:21.684Z,99369.66
2023-04-12T22:19:56.674Z,99369.66
2023-04-12T22:22:29.310Z,99370.03
2023-04-12T22:25:00.543Z,99377.06
2023-04-12T22:27:31.494Z,99383.31
2023-04-12T22:30:00.880Z,99395.06
2023-04-12T22:32:33.097Z,99398.25
2023-04-12T22:35:08.256Z,99403.22
2023-04-12T22:37:41.432Z,99403.44
2023-04-12T22:40:13.770Z,99401.63
2023-04-12T22:42:46.959Z,99396.56
2023-04-12T22:45:18.242Z,99390.47
2023-04-12T22:47:47.912Z,99390.22
2023-04-12T22:50:18.117Z,99376.28
2023-04-12T22:52:50.179Z,99365.00
2023-04-12T22:55:21.992Z,99376.47
2023-04-12T22:57:53.264Z,99386.81
2023-04-12T23:00:25.278Z,99384.94
2023-04-12T23:02:56.319Z,99380.78
2023-04-12T23:05:26.511Z,99387.84
2023-04-12T23:07:56.648Z,99388.16
2023-04-12T23:10:26.749Z,99392.31
2023-04-12T23:12:56.732Z,99387.59
2023-04-12T23:15:26.561Z,99387.91
2023-04-12T23:17:56.375Z,99381.16
2023-04-12T23:20:26.271Z,99374.91
2023-04-12T23:22:59.768Z,99380.59
2023-04-12T23:25:41.975Z,99376.19
2023-04-12T23:28:16.032Z,99367.63
2023-04-12T23:30:49.091Z,99375.19
2023-04-12T23:33:22.193Z,99374.56
2023-04-12T23:36:12.374Z,99373.63
2023-04-12T23:38:44.524Z,99382.13
2023-04-12T23:41:14.624Z,99386.69
2023-04-12T23:43:44.708Z,99397.81
2023-04-12T23:46:14.830Z,99398.69
2023-04-12T23:48:45.020Z,99385.75
2023-04-12T23:51:16.829Z,99372.47
2023-04-12T23:53:46.967Z,99363.88
2023-04-12T23:56:15.411Z,99377.59
2023-04-12T23:58:45.766Z,99374.38
